Terminal Aerodrome Forecast
Issued by NWS Cleveland, OH

Home | Current Version | Previous Version | Graphics & Text | Print | Product List | Glossary On
Versions: 1 2 3 4 5 6 7 8 9 10 11 12 13 14 15 16 17
000
FTUS41 KCLE 012300 AAA
TAFMFD
TAF AMD
KMFD 012330Z 0200/0218 VRB02KT P6SM SCT045
      TEMPO 0210/0212 5SM BR
     FM021500 VRB03KT P6SM VCTS SCT040CB BKN060=

USA.gov is the U.S. government's official web portal to all federal, state and local government web resources and services.